createdAt,value
2022-09-28T00:01:23.906Z,12.59
2022-09-28T00:03:57.388Z,12.63
2022-09-28T00:06:27.680Z,12.66
2022-09-28T00:08:56.987Z,12.58
2022-09-28T00:11:28.085Z,12.61
2022-09-28T00:14:00.074Z,12.63
2022-09-28T00:16:31.128Z,12.66
2022-09-28T00:19:00.552Z,12.59
2022-09-28T00:21:30.849Z,12.59
2022-09-28T00:24:15.085Z,12.58
2022-09-28T00:26:47.261Z,12.65
2022-09-28T00:29:23.814Z,12.62
2022-09-28T00:31:57.158Z,12.72
2022-09-28T00:34:27.326Z,12.76
2022-09-28T00:36:55.482Z,12.75
2022-09-28T00:39:23.858Z,12.71
2022-09-28T00:41:52.412Z,12.73
2022-09-28T00:44:41.574Z,12.82
2022-09-28T00:47:28.036Z,12.91
2022-09-28T00:50:03.049Z,12.92
2022-09-28T00:52:36.931Z,12.94
2022-09-28T00:55:10.228Z,12.94
2022-09-28T00:57:40.628Z,12.90
2022-09-28T01:00:11.135Z,12.93
2022-09-28T01:02:39.188Z,12.92
2022-09-28T01:05:11.234Z,12.92
2022-09-28T01:07:39.996Z,12.92
2022-09-28T01:10:09.726Z,12.93
2022-09-28T01:12:37.817Z,12.89
2022-09-28T01:15:07.110Z,12.93
2022-09-28T01:17:53.626Z,12.89
2022-09-28T01:20:45.252Z,12.93
2022-09-28T01:24:10.217Z,13.02
2022-09-28T01:27:01.327Z,13.08
2022-09-28T01:29:44.565Z,13.01
2022-09-28T01:32:34.252Z,13.01
2022-09-28T01:35:08.966Z,12.96
2022-09-28T01:37:46.050Z,12.97
2022-09-28T01:40:16.389Z,12.99
2022-09-28T01:42:50.716Z,13.03
2022-09-28T01:45:24.892Z,13.00
2022-09-28T01:47:57.712Z,13.07
2022-09-28T01:50:29.358Z,13.08
2022-09-28T01:53:03.990Z,13.12
2022-09-28T01:55:35.867Z,13.04
2022-09-28T01:58:13.677Z,13.05
2022-09-28T02:00:48.168Z,13.05
2022-09-28T02:03:22.433Z,13.13
2022-09-28T02:06:00.576Z,13.10
2022-09-28T02:08:32.671Z,13.18
2022-09-28T02:11:08.188Z,13.15
2022-09-28T02:13:41.842Z,13.22
2022-09-28T02:16:18.355Z,13.28
2022-09-28T02:18:48.391Z,13.20
2022-09-28T02:21:23.968Z,13.29
2022-09-28T02:23:57.591Z,13.21
2022-09-28T02:26:33.331Z,13.13
2022-09-28T02:32:48.954Z,13.19
2022-09-28T02:35:20.052Z,13.22
2022-09-28T02:37:49.939Z,13.24
2022-09-28T02:40:21.981Z,13.32
2022-09-28T02:42:58.948Z,13.24
2022-09-28T02:45:45.716Z,13.27
2022-09-28T02:48:43.617Z,13.22
2022-09-28T02:51:25.159Z,13.33
2022-09-28T02:54:32.010Z,13.32
2022-09-28T02:57:14.281Z,13.42
2022-09-28T02:59:53.994Z,13.29
2022-09-28T03:02:31.660Z,13.40
2022-09-28T03:05:14.848Z,13.35
2022-09-28T03:07:49.618Z,13.34
2022-09-28T03:10:24.961Z,13.36
2022-09-28T03:12:55.140Z,13.38
2022-09-28T03:15:25.884Z,13.38
2022-09-28T03:17:57.624Z,13.40
2022-09-28T03:20:26.394Z,13.38
2022-09-28T03:23:22.830Z,13.40
2022-09-28T03:25:43.238Z,13.37
2022-09-28T03:28:11.229Z,13.23
2022-09-28T03:30:42.933Z,13.19
2022-09-28T03:33:12.446Z,13.24
2022-09-28T03:35:40.576Z,13.32
2022-09-28T03:38:08.874Z,13.39
2022-09-28T03:40:39.269Z,13.37
2022-09-28T03:43:07.628Z,13.14
2022-09-28T03:45:35.923Z,13.04
2022-09-28T03:48:04.352Z,13.04
2022-09-28T03:50:36.376Z,13.14
2022-09-28T03:53:05.109Z,13.09
2022-09-28T03:55:33.345Z,13.18
2022-09-28T03:58:01.438Z,13.05
2022-09-28T04:00:31.042Z,13.07
2022-09-28T04:02:59.256Z,13.02
2022-09-28T04:05:27.349Z,13.02
2022-09-28T04:07:57.805Z,13.03
2022-09-28T04:10:26.325Z,13.01
2022-09-28T04:12:56.694Z,12.99
2022-09-28T04:15:25.584Z,12.93
2022-09-28T04:17:54.007Z,12.95
2022-09-28T04:20:41.058Z,12.85
2022-09-28T04:23:14.909Z,12.88
2022-09-28T04:25:45.946Z,12.83
2022-09-28T04:28:31.850Z,12.86
2022-09-28T04:30:59.984Z,12.74
2022-09-28T04:33:28.037Z,12.83
2022-09-28T04:35:56.090Z,12.82
2022-09-28T04:38:48.407Z,12.90
2022-09-28T04:41:13.522Z,12.86
2022-09-28T04:43:41.988Z,12.82
2022-09-28T04:46:11.660Z,12.75
2022-09-28T04:48:45.623Z,12.72
2022-09-28T04:51:32.886Z,12.80
2022-09-28T04:54:02.778Z,12.79
2022-09-28T04:56:30.909Z,12.89
2022-09-28T04:58:59.204Z,12.83
2022-09-28T05:01:27.365Z,12.84
2022-09-28T05:04:20.345Z,12.82
2022-09-28T05:07:10.640Z,12.82
2022-09-28T05:09:40.803Z,12.84
2022-09-28T05:12:10.514Z,12.81
2022-09-28T05:14:39.008Z,12.77
2022-09-28T05:17:07.579Z,12.74
2022-09-28T05:19:47.943Z,12.79
2022-09-28T05:22:16.414Z,12.74
2022-09-28T05:24:48.666Z,12.85
2022-09-28T05:27:16.725Z,12.86
2022-09-28T05:29:47.949Z,12.95
2022-09-28T05:32:41.749Z,12.83
2022-09-28T05:35:20.664Z,12.85
2022-09-28T05:37:49.609Z,12.87
2022-09-28T05:40:19.377Z,12.89
2022-09-28T05:42:47.554Z,12.88
2022-09-28T05:45:15.960Z,12.83
2022-09-28T05:47:47.061Z,12.90
2022-09-28T05:50:19.266Z,12.92
2022-09-28T05:52:50.135Z,12.86
2022-09-28T05:55:19.578Z,12.83
2022-09-28T05:57:47.607Z,12.82
2022-09-28T06:00:15.920Z,12.91
2022-09-28T06:03:00.220Z,12.95
2022-09-28T06:05:29.949Z,13.00
2022-09-28T06:07:58.874Z,12.90
2022-09-28T06:10:29.739Z,12.87
2022-09-28T06:13:01.026Z,12.94
2022-09-28T06:15:31.550Z,12.87
2022-09-28T06:18:03.993Z,12.93
2022-09-28T06:20:55.349Z,12.83
2022-09-28T06:23:32.349Z,12.90
2022-09-28T06:26:01.772Z,12.98
2022-09-28T06:28:31.071Z,12.98
2022-09-28T06:31:01.696Z,12.97
2022-09-28T06:33:31.273Z,12.93
2022-09-28T06:36:00.943Z,13.06
2022-09-28T06:38:29.169Z,13.07
2022-09-28T06:40:58.899Z,13.10
2022-09-28T06:43:34.123Z,13.01
2022-09-28T06:46:15.085Z,13.02
2022-09-28T06:49:09.601Z,12.99
2022-09-28T06:51:55.971Z,12.98
2022-09-28T06:54:37.088Z,12.93
2022-09-28T06:57:22.269Z,13.00
2022-09-28T06:59:51.655Z,13.05
2022-09-28T07:02:20.214Z,13.03
2022-09-28T07:04:48.246Z,13.03
2022-09-28T07:07:40.401Z,12.92
2022-09-28T07:10:24.172Z,12.96
2022-09-28T07:13:39.534Z,12.95
2022-09-28T07:16:09.126Z,12.95
2022-09-28T07:18:37.260Z,12.99
2022-09-28T07:21:08.169Z,12.90
2022-09-28T07:23:50.080Z,12.92
2022-09-28T07:26:24.704Z,12.99
2022-09-28T07:29:15.501Z,13.00
2022-09-28T07:32:03.244Z,13.03
2022-09-28T07:34:58.714Z,13.12
2022-09-28T07:37:37.153Z,13.06
2022-09-28T07:40:24.921Z,13.07
2022-09-28T07:42:54.190Z,13.10
2022-09-28T07:45:24.145Z,13.11
2022-09-28T07:47:56.785Z,13.05
2022-09-28T07:50:38.304Z,13.10
2022-09-28T07:53:27.151Z,13.14
2022-09-28T07:56:07.349Z,13.11
2022-09-28T07:58:43.340Z,13.18
2022-09-28T08:01:30.497Z,13.15
2022-09-28T08:04:00.927Z,13.13
2022-09-28T08:06:31.004Z,13.09
2022-09-28T08:09:01.734Z,13.21
2022-09-28T08:11:50.050Z,13.23
2022-09-28T08:14:43.011Z,13.29
2022-09-28T08:17:24.677Z,13.27
2022-09-28T08:20:16.187Z,13.28
2022-09-28T08:22:44.625Z,13.25
2022-09-28T08:25:13.458Z,13.32
2022-09-28T08:27:41.469Z,13.42
2022-09-28T08:30:11.197Z,13.39
2022-09-28T08:33:08.626Z,13.38
2022-09-28T08:36:01.371Z,13.44
2022-09-28T08:38:49.237Z,13.23
2022-09-28T08:41:43.682Z,13.37
2022-09-28T08:44:33.725Z,13.36
2022-09-28T08:47:33.337Z,13.43
2022-09-28T08:50:27.076Z,13.51
2022-09-28T08:53:31.600Z,13.62
2022-09-28T08:56:19.081Z,13.60
2022-09-28T08:58:55.491Z,13.54
2022-09-28T09:01:27.017Z,13.61
2022-09-28T09:03:55.974Z,13.62
2022-09-28T09:06:56.955Z,13.70
2022-09-28T09:09:49.049Z,13.64
2022-09-28T09:12:26.034Z,13.75
2022-09-28T09:15:19.842Z,13.76
2022-09-28T09:18:03.808Z,13.86
2022-09-28T09:20:54.720Z,13.82
2022-09-28T09:23:39.186Z,13.84
2022-09-28T09:26:22.946Z,13.92
2022-09-28T09:29:26.903Z,13.74
2022-09-28T09:32:17.102Z,13.79
2022-09-28T09:35:23.709Z,13.83
2022-09-28T09:38:42.581Z,13.80
2022-09-28T09:42:02.816Z,13.90
2022-09-28T09:45:16.873Z,13.94
2022-09-28T09:48:08.438Z,13.91
2022-09-28T09:50:45.766Z,13.94
2022-09-28T09:53:24.846Z,13.95
2022-09-28T09:55:59.464Z,13.89
2022-09-28T09:58:38.133Z,13.87
2022-09-28T10:01:34.184Z,13.89
2022-09-28T10:04:30.602Z,13.86
2022-09-28T10:07:06.951Z,13.86
2022-09-28T10:09:43.249Z,13.91
2022-09-28T10:12:32.758Z,13.95
2022-09-28T10:15:07.593Z,14.00
2022-09-28T10:17:47.594Z,13.92
2022-09-28T10:20:41.864Z,13.91
2022-09-28T10:23:33.925Z,14.04
2022-09-28T10:26:06.905Z,13.83
2022-09-28T10:28:43.927Z,13.78
2022-09-28T10:31:43.828Z,13.89
2022-09-28T10:34:28.653Z,13.99
2022-09-28T10:37:03.749Z,14.02
2022-09-28T10:39:56.945Z,14.02
2022-09-28T10:42:31.170Z,14.03
2022-09-28T10:45:04.186Z,14.08
2022-09-28T10:47:38.785Z,14.17
2022-09-28T10:50:23.541Z,14.18
2022-09-28T10:53:13.454Z,14.25
2022-09-28T10:56:22.489Z,14.24
2022-09-28T10:58:57.974Z,14.20
2022-09-28T11:01:39.707Z,14.28
2022-09-28T11:04:21.774Z,14.28
2022-09-28T11:06:50.134Z,14.25
2022-09-28T11:09:31.272Z,14.33
2022-09-28T11:12:07.763Z,14.31
2022-09-28T11:14:42.496Z,14.44
2022-09-28T11:17:19.604Z,14.44
2022-09-28T11:19:50.112Z,14.51
2022-09-28T11:22:30.040Z,14.54
2022-09-28T11:25:23.774Z,14.57
2022-09-28T11:28:00.787Z,14.62
2022-09-28T11:30:34.373Z,14.72
2022-09-28T11:33:41.179Z,14.73
2022-09-28T11:37:16.198Z,14.72
2022-09-28T11:39:53.739Z,14.73
2022-09-28T11:42:37.594Z,14.71
2022-09-28T11:45:30.556Z,14.74
2022-09-28T11:48:02.736Z,14.83
2022-09-28T11:50:46.563Z,14.91
2022-09-28T11:53:23.910Z,14.88
2022-09-28T11:56:08.914Z,15.00
2022-09-28T11:58:43.206Z,14.98
2022-09-28T12:01:26.925Z,14.99
2022-09-28T12:04:18.857Z,15.07
2022-09-28T12:06:53.962Z,15.17
2022-09-28T12:09:33.878Z,15.13
2022-09-28T12:12:22.770Z,15.12
2022-09-28T12:14:56.774Z,15.14
2022-09-28T12:17:31.656Z,15.17
2022-09-28T12:20:11.046Z,15.21
2022-09-28T12:22:45.927Z,15.21
2022-09-28T12:25:21.485Z,15.22
2022-09-28T12:27:58.948Z,15.29
2022-09-28T12:30:31.698Z,15.24
2022-09-28T12:33:05.863Z,15.23
2022-09-28T12:35:54.327Z,15.12
2022-09-28T12:39:14.616Z,15.23
2022-09-28T12:41:58.276Z,15.30
2022-09-28T12:44:47.926Z,15.16
2022-09-28T12:47:47.305Z,15.15
2022-09-28T12:50:54.518Z,15.16
2022-09-28T12:53:46.900Z,15.14
2022-09-28T12:56:23.708Z,15.11
2022-09-28T12:59:10.928Z,15.01
2022-09-28T13:02:02.189Z,15.07
2022-09-28T13:04:57.118Z,15.16
2022-09-28T13:07:37.128Z,15.07
2022-09-28T13:10:17.704Z,14.98
2022-09-28T13:13:02.780Z,15.02
2022-09-28T13:15:43.961Z,15.12
2022-09-28T13:18:23.890Z,15.19
2022-09-28T13:21:17.109Z,15.30
2022-09-28T13:23:47.822Z,15.31
2022-09-28T13:26:25.207Z,15.25
2022-09-28T13:29:01.861Z,15.26
2022-09-28T13:31:35.952Z,15.16
2022-09-28T13:34:07.454Z,15.17
2022-09-28T13:36:47.154Z,15.31
2022-09-28T13:39:37.776Z,15.26
2022-09-28T13:42:09.142Z,15.16
2022-09-28T13:45:27.958Z,15.34
2022-09-28T13:48:17.218Z,15.37
2022-09-28T13:51:13.212Z,15.32
2022-09-28T13:54:09.170Z,15.29
2022-09-28T13:56:49.161Z,15.37
2022-09-28T13:59:24.682Z,15.40
2022-09-28T14:02:06.934Z,15.36
2022-09-28T14:05:00.149Z,15.45
2022-09-28T14:08:10.825Z,15.46
2022-09-28T14:10:51.589Z,15.49
2022-09-28T14:14:00.959Z,15.29
2022-09-28T14:16:32.093Z,15.29
2022-09-28T14:19:08.207Z,15.29
2022-09-28T14:22:07.893Z,15.24
2022-09-28T14:25:03.436Z,15.29
2022-09-28T14:28:25.627Z,15.26
2022-09-28T14:30:59.310Z,15.13
2022-09-28T14:33:31.514Z,15.21
2022-09-28T14:36:04.286Z,15.20
2022-09-28T14:38:54.926Z,15.27
2022-09-28T14:41:33.678Z,15.25
2022-09-28T14:44:09.226Z,15.26
2022-09-28T14:46:44.735Z,15.34
2022-09-28T14:49:51.210Z,15.28
2022-09-28T14:52:39.494Z,15.31
2022-09-28T14:55:18.154Z,15.31
2022-09-28T14:57:54.180Z,15.38
2022-09-28T15:00:25.995Z,15.38
2022-09-28T15:03:00.584Z,15.39
2022-09-28T15:05:33.636Z,15.30
2022-09-28T15:08:03.712Z,15.25
2022-09-28T15:10:36.675Z,15.29
2022-09-28T15:13:18.710Z,15.35
2022-09-28T15:15:51.751Z,15.30
2022-09-28T15:19:06.332Z,15.27
2022-09-28T15:21:39.515Z,15.27
2022-09-28T15:24:30.598Z,15.28
2022-09-28T15:27:00.953Z,15.26
2022-09-28T15:29:31.808Z,15.26
2022-09-28T15:32:00.191Z,15.25
2022-09-28T15:34:48.514Z,15.26
2022-09-28T15:37:19.943Z,15.24
2022-09-28T15:39:48.643Z,15.25
2022-09-28T15:42:19.606Z,15.29
2022-09-28T15:45:24.826Z,15.23
2022-09-28T15:47:58.429Z,15.23
2022-09-28T15:50:29.208Z,15.26
2022-09-28T15:53:01.554Z,15.10
2022-09-28T15:55:34.061Z,15.12
2022-09-28T15:58:19.158Z,15.14
2022-09-28T16:00:48.621Z,15.13
2022-09-28T16:03:24.648Z,15.08
2022-09-28T16:06:06.266Z,15.09
2022-09-28T16:08:41.978Z,15.20
2022-09-28T16:11:18.226Z,15.14
2022-09-28T16:14:04.405Z,15.13
2022-09-28T16:16:41.130Z,15.14
2022-09-28T16:19:24.426Z,15.12
2022-09-28T16:21:55.269Z,15.01
2022-09-28T16:24:28.222Z,15.01
2022-09-28T16:26:59.677Z,14.99
2022-09-28T16:29:39.906Z,14.95
2022-09-28T16:32:37.767Z,14.94
2022-09-28T16:35:23.620Z,14.78
2022-09-28T16:38:00.831Z,14.81
2022-09-28T16:40:29.645Z,14.77
2022-09-28T16:43:03.840Z,14.87
2022-09-28T16:45:35.072Z,14.81
2022-09-28T16:48:04.135Z,14.75
2022-09-28T16:50:32.371Z,14.70
2022-09-28T16:53:31.618Z,14.60
2022-09-28T16:56:00.648Z,14.61
2022-09-28T16:58:28.859Z,14.52
2022-09-28T17:00:58.719Z,14.50
2022-09-28T17:03:27.809Z,14.47
2022-09-28T17:05:57.079Z,14.38
2022-09-28T17:08:26.655Z,14.41
2022-09-28T17:13:46.034Z,14.17
2022-09-28T17:16:17.994Z,14.12
2022-09-28T17:18:46.936Z,14.01
2022-09-28T17:21:18.652Z,14.00
2022-09-28T17:23:48.690Z,13.98
2022-09-28T17:26:21.796Z,13.83
2022-09-28T17:28:49.925Z,13.91
2022-09-28T17:31:19.508Z,13.79
2022-09-28T17:33:47.704Z,13.72
2022-09-28T17:36:19.030Z,13.64
2022-09-28T17:38:49.375Z,13.53
2022-09-28T17:41:21.116Z,13.54
2022-09-28T17:43:49.827Z,13.57
2022-09-28T17:46:28.508Z,13.60
2022-09-28T17:48:59.490Z,13.66
2022-09-28T17:51:30.381Z,13.54
2022-09-28T17:53:58.664Z,13.39
2022-09-28T17:56:31.672Z,13.33
2022-09-28T17:59:03.024Z,13.23
2022-09-28T18:01:35.004Z,13.17
2022-09-28T18:04:04.903Z,13.10
2022-09-28T18:06:33.881Z,13.02
2022-09-28T18:09:02.816Z,13.00
2022-09-28T18:11:31.435Z,12.94
2022-09-28T18:13:59.526Z,12.90
2022-09-28T18:16:29.050Z,12.94
2022-09-28T18:18:59.858Z,12.85
2022-09-28T18:21:28.381Z,12.85
2022-09-28T18:23:56.379Z,12.84
2022-09-28T18:26:24.528Z,12.80
2022-09-28T18:28:55.941Z,12.71
2022-09-28T18:31:24.491Z,12.71
2022-09-28T18:33:57.776Z,12.68
2022-09-28T18:36:30.707Z,12.63
2022-09-28T18:39:01.474Z,12.61
2022-09-28T18:41:29.976Z,12.63
2022-09-28T18:44:00.837Z,12.74
2022-09-28T18:46:30.452Z,12.54
2022-09-28T18:48:58.638Z,12.56
2022-09-28T18:51:26.761Z,12.52
2022-09-28T18:53:56.212Z,12.59
2022-09-28T18:56:24.682Z,12.52
2022-09-28T18:58:52.790Z,12.48
2022-09-28T19:01:30.050Z,12.43
2022-09-28T19:04:01.343Z,12.48
2022-09-28T19:06:29.969Z,12.49
2022-09-28T19:08:59.986Z,12.45
2022-09-28T19:11:29.495Z,12.31
2022-09-28T19:13:58.429Z,12.26
2022-09-28T19:16:29.378Z,12.17
2022-09-28T19:18:58.988Z,12.14
2022-09-28T19:21:27.733Z,12.14
2022-09-28T19:23:56.522Z,12.17
2022-09-28T19:26:27.996Z,12.18
2022-09-28T19:28:58.252Z,12.05
2022-09-28T19:31:27.036Z,12.17
2022-09-28T19:33:55.152Z,12.15
2022-09-28T19:36:28.289Z,12.20
2022-09-28T19:38:58.078Z,12.23
2022-09-28T19:41:51.011Z,12.13
2022-09-28T19:44:25.654Z,12.12
2022-09-28T19:46:55.907Z,12.21
2022-09-28T19:49:26.185Z,12.11
2022-09-28T19:52:12.190Z,11.96
2022-09-28T19:54:43.868Z,12.04
2022-09-28T19:57:15.950Z,11.98
2022-09-28T19:59:45.386Z,11.92
2022-09-28T20:02:14.838Z,11.93
2022-09-28T20:04:42.956Z,11.93
2022-09-28T20:07:10.997Z,11.90
2022-09-28T20:09:39.089Z,11.89
2022-09-28T20:12:07.374Z,11.92
2022-09-28T20:14:39.677Z,11.84
2022-09-28T20:17:08.981Z,11.77
2022-09-28T20:19:37.043Z,11.81
2022-09-28T20:22:05.347Z,11.89
2022-09-28T20:24:33.984Z,11.92
2022-09-28T20:27:02.457Z,11.89
2022-09-28T20:29:33.336Z,11.95
2022-09-28T20:32:04.222Z,12.00
2022-09-28T20:34:33.418Z,12.04
2022-09-28T20:37:01.750Z,11.96
2022-09-28T20:39:30.111Z,11.95
2022-09-28T20:41:58.152Z,11.95
2022-09-28T20:44:26.271Z,12.02
2022-09-28T20:46:54.579Z,11.93
2022-09-28T20:49:24.295Z,11.93
2022-09-28T20:51:52.377Z,12.01
2022-09-28T20:54:22.023Z,11.91
2022-09-28T20:56:50.125Z,12.01
2022-09-28T20:59:18.408Z,11.90
2022-09-28T21:01:46.614Z,11.92
2022-09-28T21:04:14.814Z,11.99
2022-09-28T21:06:44.347Z,12.03
2022-09-28T21:09:13.218Z,12.01
2022-09-28T21:11:41.612Z,11.99
2022-09-28T21:14:10.810Z,11.95
2022-09-28T21:16:39.296Z,11.99
2022-09-28T21:19:07.636Z,12.12
2022-09-28T21:21:35.829Z,12.19
2022-09-28T21:24:05.489Z,12.10
2022-09-28T21:26:34.978Z,12.11
2022-09-28T21:29:05.880Z,12.12
2022-09-28T21:31:40.081Z,12.09
2022-09-28T21:34:08.378Z,12.06
2022-09-28T21:36:36.689Z,11.94
2022-09-28T21:39:10.278Z,11.93
2022-09-28T21:41:38.734Z,11.97
2022-09-28T21:44:08.130Z,12.02
2022-09-28T21:46:36.916Z,11.99
2022-09-28T21:49:07.507Z,11.94
2022-09-28T21:51:37.567Z,11.97
2022-09-28T21:54:08.097Z,11.96
2022-09-28T21:56:36.173Z,11.97
2022-09-28T21:59:04.239Z,11.94
2022-09-28T22:01:32.405Z,11.95
2022-09-28T22:04:00.766Z,12.02
2022-09-28T22:06:29.281Z,11.97
2022-09-28T22:08:58.011Z,11.92
2022-09-28T22:11:29.405Z,11.92
2022-09-28T22:13:59.970Z,11.87
2022-09-28T22:16:31.730Z,11.88
2022-09-28T22:19:00.701Z,11.85
2022-09-28T22:21:31.800Z,11.91
2022-09-28T22:24:01.828Z,11.89
2022-09-28T22:26:33.575Z,11.85
2022-09-28T22:29:05.212Z,11.74
2022-09-28T22:31:36.043Z,11.81
2022-09-28T22:34:05.098Z,11.84
2022-09-28T22:36:33.398Z,11.73
2022-09-28T22:39:04.119Z,11.73
2022-09-28T22:41:59.070Z,11.64
2022-09-28T22:44:27.202Z,11.67
2022-09-28T22:46:55.385Z,11.62
2022-09-28T22:49:23.730Z,11.61
2022-09-28T22:51:52.116Z,11.61
2022-09-28T22:54:21.536Z,11.49
2022-09-28T22:56:49.611Z,11.49
2022-09-28T22:59:19.146Z,11.51
2022-09-28T23:01:47.438Z,11.45
2022-09-28T23:04:15.562Z,11.46
2022-09-28T23:06:43.669Z,11.47
2022-09-28T23:09:11.836Z,11.50
2022-09-28T23:11:39.965Z,11.46
2022-09-28T23:14:11.407Z,11.52
2022-09-28T23:16:41.230Z,11.50
2022-09-28T23:19:09.317Z,11.49
2022-09-28T23:21:38.346Z,11.54
2022-09-28T23:24:06.640Z,11.56
2022-09-28T23:26:36.881Z,11.45
2022-09-28T23:29:05.687Z,11.45
2022-09-28T23:31:34.677Z,11.46
2022-09-28T23:34:06.667Z,11.47
2022-09-28T23:36:35.869Z,11.40
2022-09-28T23:39:04.234Z,11.51
2022-09-28T23:41:32.286Z,11.40
2022-09-28T23:44:00.441Z,11.32
2022-09-28T23:46:28.621Z,11.24
2022-09-28T23:48:56.791Z,11.31
2022-09-28T23:51:26.249Z,11.32
2022-09-28T23:53:54.395Z,11.34
2022-09-28T23:56:22.652Z,11.38
2022-09-28T23:58:50.752Z,11.36
